NWS1405 UWKD-UTDD
Flight info
| Callsign | NWS1405 |
|---|---|
| Flight time | 3h 13m |
| Altitude | 35000 |
| Route | N0450F350 INTAR T788 BENAP L991 MULTA M875 ODILA M199 INKUM L162 DAKLI Z407 USETU Z514 GETLI G555 PR |
| Aircraft | A321/M-Q/L |
Departure
| Time | 2026-04-24 20:11 |
|---|---|
| Airport | Kazan International Airport (UWKD) |
Arrival
| Time | 2026-04-24 23:24 |
|---|---|
| Airport | Dushanbe International Airport (UTDD) |
| Time | Latitude | Longitude | Altitude | Speed | Heading |
|---|---|---|---|---|---|
| 2026-04-24 19:49 | 55.60680 | 49.29665 | 416 ft | 0 kts | 35° |
| 2026-04-24 20:02 | 55.60683 | 49.29669 | 416 ft | 3 kts | 34° |
| 2026-04-24 20:02 | 55.60731 | 49.29660 | 409 ft | 12 kts | 328° |
| 2026-04-24 20:02 | 55.60793 | 49.29531 | 413 ft | 13 kts | 304° |
| 2026-04-24 20:03 | 55.60780 | 49.29395 | 413 ft | 13 kts | 224° |
| 2026-04-24 20:03 | 55.60706 | 49.29298 | 412 ft | 14 kts | 216° |
| 2026-04-24 20:03 | 55.60624 | 49.29196 | 405 ft | 15 kts | 218° |
| 2026-04-24 20:03 | 55.60579 | 49.29031 | 414 ft | 16 kts | 266° |
| 2026-04-24 20:04 | 55.60585 | 49.28828 | 416 ft | 17 kts | 274° |
| 2026-04-24 20:04 | 55.60599 | 49.28616 | 411 ft | 18 kts | 289° |
| 2026-04-24 20:04 | 55.60664 | 49.28426 | 408 ft | 18 kts | 305° |
| 2026-04-24 20:04 | 55.60739 | 49.28235 | 414 ft | 19 kts | 304° |
| 2026-04-24 20:05 | 55.60817 | 49.28034 | 415 ft | 20 kts | 304° |
| 2026-04-24 20:05 | 55.60899 | 49.27823 | 413 ft | 21 kts | 304° |
| 2026-04-24 20:05 | 55.60984 | 49.27603 | 414 ft | 22 kts | 304° |
| 2026-04-24 20:05 | 55.61073 | 49.27373 | 411 ft | 23 kts | 304° |
| 2026-04-24 20:06 | 55.61164 | 49.27134 | 411 ft | 24 kts | 304° |
| 2026-04-24 20:06 | 55.61260 | 49.26889 | 411 ft | 25 kts | 305° |
| 2026-04-24 20:06 | 55.61357 | 49.26642 | 409 ft | 19 kts | 304° |
| 2026-04-24 20:06 | 55.61434 | 49.26443 | 412 ft | 20 kts | 304° |
| 2026-04-24 20:07 | 55.61488 | 49.26307 | 408 ft | 21 kts | 304° |
| 2026-04-24 20:07 | 55.61599 | 49.26022 | 412 ft | 22 kts | 304° |
| 2026-04-24 20:07 | 55.61686 | 49.25795 | 416 ft | 23 kts | 304° |
| 2026-04-24 20:07 | 55.61777 | 49.25560 | 416 ft | 24 kts | 304° |
| 2026-04-24 20:08 | 55.61844 | 49.25341 | 415 ft | 17 kts | 268° |
| 2026-04-24 20:08 | 55.61782 | 49.25212 | 406 ft | 16 kts | 220° |
| 2026-04-24 20:08 | 55.61754 | 49.25173 | 407 ft | 2 kts | 215° |
| 2026-04-24 20:08 | 55.61739 | 49.25156 | 408 ft | 1 kts | 213° |
| 2026-04-24 20:09 | 55.61738 | 49.25155 | 408 ft | 0 kts | 213° |
| 2026-04-24 20:09 | 55.61730 | 49.25147 | 408 ft | 3 kts | 206° |
| 2026-04-24 20:09 | 55.61707 | 49.25141 | 409 ft | 4 kts | 178° |
| 2026-04-24 20:09 | 55.61679 | 49.25163 | 408 ft | 6 kts | 141° |
| 2026-04-24 20:10 | 55.61643 | 49.25249 | 411 ft | 10 kts | 124° |
| 2026-04-24 20:10 | 55.61632 | 49.25277 | 411 ft | 0 kts | 124° |
| 2026-04-24 20:10 | 55.61626 | 49.25293 | 411 ft | 13 kts | 124° |
| 2026-04-24 20:10 | 55.61437 | 49.25818 | 415 ft | 86 kts | 125° |
| 2026-04-24 20:11 | 55.60967 | 49.27006 | 413 ft | 147 kts | 124° |
| 2026-04-24 20:11 | 55.60318 | 49.28694 | 649 ft | 174 kts | 123° |
| 2026-04-24 20:11 | 55.59636 | 49.30449 | 1365 ft | 174 kts | 126° |
| 2026-04-24 20:11 | 55.58875 | 49.32126 | 1942 ft | 176 kts | 131° |
| 2026-04-24 20:12 | 55.58104 | 49.33794 | 2529 ft | 174 kts | 128° |
| 2026-04-24 20:12 | 55.57435 | 49.35557 | 3166 ft | 171 kts | 128° |
| 2026-04-24 20:12 | 55.56796 | 49.37330 | 3717 ft | 175 kts | 128° |
| 2026-04-24 20:12 | 55.56098 | 49.39224 | 3969 ft | 194 kts | 128° |
| 2026-04-24 20:13 | 55.55306 | 49.41301 | 4144 ft | 214 kts | 132° |
| 2026-04-24 20:13 | 55.54289 | 49.43417 | 4309 ft | 238 kts | 137° |
| 2026-04-24 20:13 | 55.53094 | 49.45542 | 4867 ft | 247 kts | 139° |
| 2026-04-24 20:13 | 55.51844 | 49.47649 | 5577 ft | 252 kts | 140° |
| 2026-04-24 20:14 | 55.50579 | 49.49753 | 6232 ft | 255 kts | 141° |
| 2026-04-24 20:14 | 55.49292 | 49.51900 | 6410 ft | 256 kts | 140° |
| 2026-04-24 20:14 | 55.48010 | 49.54078 | 6443 ft | 255 kts | 140° |
| 2026-04-24 20:14 | 55.46737 | 49.56260 | 6459 ft | 254 kts | 140° |
| 2026-04-24 20:15 | 55.45467 | 49.58447 | 6460 ft | 255 kts | 140° |
| 2026-04-24 20:15 | 55.44198 | 49.60630 | 6465 ft | 255 kts | 140° |
| 2026-04-24 20:15 | 55.42927 | 49.62814 | 6457 ft | 255 kts | 140° |
| 2026-04-24 20:15 | 55.41661 | 49.64985 | 6462 ft | 253 kts | 139° |
| 2026-04-24 20:16 | 55.40387 | 49.67154 | 6463 ft | 256 kts | 140° |
| 2026-04-24 20:16 | 55.39115 | 49.69324 | 6453 ft | 254 kts | 140° |
| 2026-04-24 20:16 | 55.37844 | 49.71485 | 6463 ft | 255 kts | 140° |
| 2026-04-24 20:16 | 55.36588 | 49.73635 | 6469 ft | 255 kts | 140° |
| 2026-04-24 20:17 | 55.35313 | 49.75813 | 6462 ft | 256 kts | 140° |
| 2026-04-24 20:17 | 55.32758 | 49.80150 | 6467 ft | 255 kts | 140° |
| 2026-04-24 20:17 | 55.31488 | 49.82317 | 6465 ft | 254 kts | 140° |
| 2026-04-24 20:18 | 55.30648 | 49.83748 | 6471 ft | 254 kts | 140° |
| 2026-04-24 20:18 | 55.29268 | 49.87179 | 6595 ft | 267 kts | 118° |
| 2026-04-24 20:18 | 55.28546 | 49.90190 | 7358 ft | 267 kts | 118° |
| 2026-04-24 20:18 | 55.27808 | 49.93190 | 8099 ft | 268 kts | 118° |
| 2026-04-24 20:19 | 55.27054 | 49.96206 | 8770 ft | 271 kts | 118° |
| 2026-04-24 20:19 | 55.26288 | 49.99252 | 9433 ft | 274 kts | 119° |
| 2026-04-24 20:19 | 55.25499 | 50.02378 | 9808 ft | 291 kts | 119° |
| 2026-04-24 20:19 | 55.24647 | 50.05734 | 9936 ft | 312 kts | 118° |
| 2026-04-24 20:20 | 55.23739 | 50.09325 | 10078 ft | 331 kts | 118° |
| 2026-04-24 20:20 | 55.22794 | 50.13084 | 10473 ft | 341 kts | 118° |
| 2026-04-24 20:20 | 55.21837 | 50.16905 | 11048 ft | 345 kts | 118° |
| 2026-04-24 20:20 | 55.20871 | 50.20769 | 11642 ft | 347 kts | 118° |
| 2026-04-24 20:21 | 55.19900 | 50.24664 | 12226 ft | 350 kts | 118° |
| 2026-04-24 20:21 | 55.18916 | 50.28590 | 12805 ft | 354 kts | 118° |
| 2026-04-24 20:21 | 55.17921 | 50.32547 | 13378 ft | 357 kts | 118° |
| 2026-04-24 20:21 | 55.16928 | 50.36474 | 13936 ft | 359 kts | 118° |
| 2026-04-24 20:22 | 55.15911 | 50.40480 | 14486 ft | 362 kts | 119° |
| 2026-04-24 20:22 | 55.14884 | 50.44520 | 15037 ft | 365 kts | 119° |
| 2026-04-24 20:22 | 55.13846 | 50.48587 | 15566 ft | 367 kts | 119° |
| 2026-04-24 20:22 | 55.12799 | 50.52678 | 16088 ft | 370 kts | 119° |
| 2026-04-24 20:23 | 55.11744 | 50.56800 | 16599 ft | 373 kts | 120° |
| 2026-04-24 20:23 | 55.10680 | 50.60952 | 17099 ft | 376 kts | 120° |
| 2026-04-24 20:23 | 55.09606 | 50.65139 | 17586 ft | 378 kts | 120° |
| 2026-04-24 20:23 | 55.08524 | 50.69347 | 18055 ft | 381 kts | 120° |
| 2026-04-24 20:24 | 55.07802 | 50.72148 | 18357 ft | 383 kts | 120° |
| 2026-04-24 20:24 | 55.06704 | 50.76396 | 18789 ft | 386 kts | 120° |
| 2026-04-24 20:24 | 55.05580 | 50.80664 | 19223 ft | 387 kts | 123° |
| 2026-04-24 20:24 | 55.04167 | 50.84617 | 19651 ft | 382 kts | 133° |
| 2026-04-24 20:25 | 55.02414 | 50.88069 | 20077 ft | 380 kts | 139° |
| 2026-04-24 20:25 | 55.00572 | 50.91394 | 20486 ft | 383 kts | 139° |
| 2026-04-24 20:25 | 54.98718 | 50.94738 | 20898 ft | 385 kts | 139° |
| 2026-04-24 20:25 | 54.96857 | 50.98102 | 21314 ft | 387 kts | 139° |
| 2026-04-24 20:26 | 54.94984 | 51.01493 | 21712 ft | 389 kts | 139° |
| 2026-04-24 20:26 | 54.93098 | 51.04902 | 22099 ft | 392 kts | 139° |
| 2026-04-24 20:26 | 54.91200 | 51.08324 | 22486 ft | 394 kts | 139° |
| 2026-04-24 20:26 | 54.89290 | 51.11761 | 22870 ft | 396 kts | 140° |
| 2026-04-24 20:27 | 54.87369 | 51.15211 | 23237 ft | 398 kts | 140° |
| 2026-04-24 20:27 | 54.85440 | 51.18680 | 23626 ft | 400 kts | 140° |
| 2026-04-24 20:27 | 54.83500 | 51.22164 | 23989 ft | 402 kts | 140° |
| 2026-04-24 20:27 | 54.81552 | 51.25658 | 24337 ft | 404 kts | 140° |
| 2026-04-24 20:28 | 54.79592 | 51.29167 | 24669 ft | 406 kts | 140° |
| 2026-04-24 20:28 | 54.77619 | 51.32689 | 24986 ft | 409 kts | 140° |
| 2026-04-24 20:28 | 54.75630 | 51.36229 | 25299 ft | 411 kts | 140° |
| 2026-04-24 20:28 | 54.73627 | 51.39779 | 25602 ft | 414 kts | 141° |
| 2026-04-24 20:29 | 54.72291 | 51.42144 | 25818 ft | 415 kts | 141° |
| 2026-04-24 20:29 | 54.69580 | 51.46947 | 26213 ft | 418 kts | 141° |
| 2026-04-24 20:29 | 54.67545 | 51.50552 | 26511 ft | 420 kts | 141° |
| 2026-04-24 20:29 | 54.65498 | 51.54177 | 26795 ft | 423 kts | 141° |
| 2026-04-24 20:30 | 54.63468 | 51.57771 | 27074 ft | 424 kts | 141° |
| 2026-04-24 20:30 | 54.61400 | 51.61424 | 27347 ft | 426 kts | 141° |
| 2026-04-24 20:30 | 54.59321 | 51.65088 | 27603 ft | 429 kts | 141° |
| 2026-04-24 20:30 | 54.57228 | 51.68767 | 27856 ft | 430 kts | 142° |
| 2026-04-24 20:31 | 54.55130 | 51.72447 | 28101 ft | 431 kts | 142° |
| 2026-04-24 20:31 | 54.53022 | 51.76141 | 28319 ft | 433 kts | 142° |
| 2026-04-24 20:31 | 54.50904 | 51.79843 | 28525 ft | 435 kts | 142° |
| 2026-04-24 20:31 | 54.48782 | 51.83554 | 28745 ft | 435 kts | 142° |
| 2026-04-24 20:32 | 54.46656 | 51.87267 | 29010 ft | 435 kts | 142° |
| 2026-04-24 20:32 | 54.44535 | 51.90965 | 29288 ft | 434 kts | 142° |
| 2026-04-24 20:32 | 54.42410 | 51.94661 | 29550 ft | 434 kts | 142° |
| 2026-04-24 20:32 | 54.40288 | 51.98343 | 29828 ft | 433 kts | 142° |
| 2026-04-24 20:33 | 54.38167 | 52.02018 | 30119 ft | 432 kts | 142° |
| 2026-04-24 20:33 | 54.36053 | 52.05678 | 30359 ft | 432 kts | 142° |
| 2026-04-24 20:33 | 54.33932 | 52.09339 | 30571 ft | 433 kts | 142° |
| 2026-04-24 20:33 | 54.31807 | 52.12996 | 30771 ft | 433 kts | 142° |
| 2026-04-24 20:34 | 54.29680 | 52.16653 | 31003 ft | 433 kts | 142° |
| 2026-04-24 20:34 | 54.27553 | 52.20308 | 31212 ft | 434 kts | 142° |
| 2026-04-24 20:34 | 54.25420 | 52.23969 | 31423 ft | 434 kts | 142° |
| 2026-04-24 20:34 | 54.23290 | 52.27628 | 31619 ft | 435 kts | 142° |
| 2026-04-24 20:35 | 54.21152 | 52.31301 | 31807 ft | 436 kts | 142° |
| 2026-04-24 20:35 | 54.19012 | 52.34969 | 31992 ft | 436 kts | 142° |
| 2026-04-24 20:35 | 54.16893 | 52.38578 | 32170 ft | 437 kts | 142° |
| 2026-04-24 20:35 | 54.14738 | 52.42240 | 32341 ft | 438 kts | 142° |
| 2026-04-24 20:36 | 54.12578 | 52.45911 | 32547 ft | 438 kts | 141° |
| 2026-04-24 20:36 | 54.10417 | 52.49579 | 32739 ft | 438 kts | 141° |
| 2026-04-24 20:36 | 54.08256 | 52.53240 | 32932 ft | 438 kts | 141° |
| 2026-04-24 20:36 | 54.06091 | 52.56900 | 33105 ft | 439 kts | 141° |
| 2026-04-24 20:37 | 54.03926 | 52.60558 | 33274 ft | 439 kts | 141° |
| 2026-04-24 20:37 | 54.01756 | 52.64226 | 33438 ft | 440 kts | 141° |
| 2026-04-24 20:37 | 53.99586 | 52.67894 | 33603 ft | 441 kts | 141° |
| 2026-04-24 20:37 | 53.97410 | 52.71565 | 33779 ft | 441 kts | 142° |
| 2026-04-24 20:38 | 53.95228 | 52.75234 | 33960 ft | 441 kts | 142° |
| 2026-04-24 20:38 | 53.93043 | 52.78895 | 34099 ft | 442 kts | 142° |
| 2026-04-24 20:38 | 53.90851 | 52.82557 | 34258 ft | 442 kts | 142° |
| 2026-04-24 20:38 | 53.88654 | 52.86217 | 34412 ft | 443 kts | 142° |
| 2026-04-24 20:39 | 53.86458 | 52.89877 | 34576 ft | 443 kts | 142° |
| 2026-04-24 20:39 | 53.84265 | 52.93532 | 34618 ft | 442 kts | 142° |
| 2026-04-24 20:39 | 53.79916 | 53.00923 | 34616 ft | 443 kts | 141° |
| 2026-04-24 20:40 | 53.75687 | 53.08543 | 34626 ft | 444 kts | 140° |
| 2026-04-24 20:40 | 53.71494 | 53.16136 | 34627 ft | 445 kts | 140° |
| 2026-04-24 20:41 | 53.67238 | 53.23708 | 34643 ft | 444 kts | 141° |
| 2026-04-24 20:41 | 53.62961 | 53.31233 | 34673 ft | 445 kts | 141° |
| 2026-04-24 20:42 | 53.58684 | 53.38754 | 34691 ft | 445 kts | 141° |
| 2026-04-24 20:42 | 53.54401 | 53.46269 | 34699 ft | 445 kts | 141° |
| 2026-04-24 20:43 | 53.50111 | 53.53767 | 34707 ft | 445 kts | 141° |
| 2026-04-24 20:43 | 53.45817 | 53.61257 | 34713 ft | 445 kts | 141° |
| 2026-04-24 20:44 | 53.41520 | 53.68729 | 34717 ft | 445 kts | 141° |
| 2026-04-24 20:44 | 53.37223 | 53.76183 | 34731 ft | 445 kts | 141° |
| 2026-04-24 20:45 | 53.32923 | 53.83624 | 34728 ft | 444 kts | 141° |
| 2026-04-24 20:45 | 53.28649 | 53.90996 | 34732 ft | 444 kts | 142° |
| 2026-04-24 20:46 | 53.24346 | 53.98402 | 34733 ft | 444 kts | 142° |
| 2026-04-24 20:46 | 53.20034 | 54.05789 | 34738 ft | 444 kts | 142° |
| 2026-04-24 20:47 | 53.15729 | 54.13170 | 34734 ft | 444 kts | 142° |
| 2026-04-24 20:47 | 53.11413 | 54.20535 | 34744 ft | 443 kts | 142° |
| 2026-04-24 20:48 | 53.07103 | 54.27877 | 34748 ft | 444 kts | 142° |
| 2026-04-24 20:48 | 53.02780 | 54.35213 | 34750 ft | 444 kts | 142° |
| 2026-04-24 20:49 | 52.98453 | 54.42525 | 34754 ft | 443 kts | 143° |
| 2026-04-24 20:49 | 52.94125 | 54.49803 | 34757 ft | 443 kts | 143° |
| 2026-04-24 20:50 | 52.89785 | 54.57067 | 34759 ft | 443 kts | 143° |
| 2026-04-24 20:50 | 52.85470 | 54.64270 | 34762 ft | 443 kts | 143° |
| 2026-04-24 20:51 | 52.81129 | 54.71505 | 34765 ft | 443 kts | 143° |
| 2026-04-24 20:51 | 52.76785 | 54.78725 | 34768 ft | 443 kts | 143° |
| 2026-04-24 20:52 | 52.72432 | 54.85923 | 34771 ft | 443 kts | 143° |
| 2026-04-24 20:52 | 52.68070 | 54.93115 | 34774 ft | 443 kts | 143° |
| 2026-04-24 20:53 | 52.63707 | 55.00303 | 34776 ft | 443 kts | 143° |
| 2026-04-24 20:53 | 52.59344 | 55.07471 | 34778 ft | 443 kts | 143° |
| 2026-04-24 20:54 | 52.54980 | 55.14610 | 34784 ft | 443 kts | 144° |
| 2026-04-24 20:54 | 52.50638 | 55.21689 | 34789 ft | 442 kts | 144° |
| 2026-04-24 20:55 | 52.46270 | 55.28795 | 34791 ft | 442 kts | 144° |
| 2026-04-24 20:55 | 52.41899 | 55.35889 | 34798 ft | 442 kts | 144° |
| 2026-04-24 20:56 | 52.37520 | 55.42971 | 34800 ft | 442 kts | 144° |
| 2026-04-24 20:56 | 52.33135 | 55.50047 | 34798 ft | 443 kts | 144° |
| 2026-04-24 20:57 | 52.28752 | 55.57101 | 34797 ft | 442 kts | 144° |
| 2026-04-24 20:57 | 52.24363 | 55.64129 | 34802 ft | 442 kts | 144° |
| 2026-04-24 20:58 | 52.19974 | 55.71135 | 34804 ft | 441 kts | 144° |
| 2026-04-24 20:58 | 52.15580 | 55.78138 | 34810 ft | 441 kts | 144° |
| 2026-04-24 20:59 | 52.11193 | 55.85117 | 34809 ft | 441 kts | 144° |
| 2026-04-24 20:59 | 52.06827 | 55.92040 | 34804 ft | 440 kts | 144° |
| 2026-04-24 21:00 | 52.02432 | 55.98980 | 34804 ft | 440 kts | 145° |
| 2026-04-24 21:00 | 51.98035 | 56.05895 | 34801 ft | 440 kts | 145° |
| 2026-04-24 21:01 | 51.93638 | 56.12798 | 34797 ft | 440 kts | 145° |
| 2026-04-24 21:01 | 51.89239 | 56.19685 | 34805 ft | 440 kts | 145° |
| 2026-04-24 21:02 | 51.84833 | 56.26571 | 34803 ft | 440 kts | 145° |
| 2026-04-24 21:02 | 51.80456 | 56.33387 | 34807 ft | 440 kts | 145° |
| 2026-04-24 21:03 | 51.76042 | 56.40237 | 34813 ft | 440 kts | 145° |
| 2026-04-24 21:03 | 51.71631 | 56.47072 | 34816 ft | 440 kts | 145° |
| 2026-04-24 21:04 | 51.67209 | 56.53893 | 34808 ft | 440 kts | 145° |
| 2026-04-24 21:04 | 51.62430 | 56.59671 | 34817 ft | 420 kts | 161° |
| 2026-04-24 21:05 | 51.57030 | 56.62702 | 34826 ft | 409 kts | 172° |
| 2026-04-24 21:05 | 51.51547 | 56.65144 | 34819 ft | 409 kts | 172° |
| 2026-04-24 21:06 | 51.46053 | 56.67592 | 34827 ft | 410 kts | 172° |
| 2026-04-24 21:06 | 51.40557 | 56.70047 | 34830 ft | 410 kts | 172° |
| 2026-04-24 21:07 | 51.35061 | 56.72491 | 34832 ft | 410 kts | 172° |
| 2026-04-24 21:07 | 51.29568 | 56.74932 | 34835 ft | 410 kts | 172° |
| 2026-04-24 21:08 | 51.24061 | 56.77371 | 34836 ft | 410 kts | 172° |
| 2026-04-24 21:08 | 51.18593 | 56.79778 | 34843 ft | 410 kts | 172° |
| 2026-04-24 21:09 | 51.13092 | 56.82197 | 34848 ft | 410 kts | 172° |
| 2026-04-24 21:09 | 51.07615 | 56.84733 | 34845 ft | 414 kts | 166° |
| 2026-04-24 21:10 | 51.02353 | 56.88684 | 34851 ft | 419 kts | 162° |
| 2026-04-24 21:10 | 50.97105 | 56.92710 | 34854 ft | 419 kts | 162° |
| 2026-04-24 21:11 | 50.91855 | 56.96710 | 34853 ft | 418 kts | 162° |
| 2026-04-24 21:11 | 50.86605 | 57.00695 | 34853 ft | 418 kts | 162° |
| 2026-04-24 21:12 | 50.82246 | 57.03993 | 34851 ft | 418 kts | 162° |
| 2026-04-24 21:12 | 50.76116 | 57.08619 | 34847 ft | 418 kts | 162° |
| 2026-04-24 21:13 | 50.70901 | 57.12556 | 34846 ft | 418 kts | 162° |
| 2026-04-24 21:13 | 50.65654 | 57.16521 | 34847 ft | 418 kts | 162° |
| 2026-04-24 21:14 | 50.60399 | 57.20474 | 34849 ft | 419 kts | 162° |
| 2026-04-24 21:14 | 50.56024 | 57.23749 | 34855 ft | 419 kts | 163° |
| 2026-04-24 21:15 | 50.50761 | 57.27671 | 34859 ft | 419 kts | 162° |
| 2026-04-24 21:15 | 50.45489 | 57.31594 | 34859 ft | 419 kts | 163° |
| 2026-04-24 21:16 | 50.40222 | 57.35504 | 34860 ft | 418 kts | 163° |
| 2026-04-24 21:16 | 50.34958 | 57.39410 | 34859 ft | 418 kts | 163° |
| 2026-04-24 21:17 | 50.29695 | 57.43299 | 34859 ft | 418 kts | 163° |
| 2026-04-24 21:17 | 50.24431 | 57.47187 | 34861 ft | 418 kts | 163° |
| 2026-04-24 21:18 | 50.19202 | 57.51037 | 34862 ft | 418 kts | 163° |
| 2026-04-24 21:18 | 50.13936 | 57.54908 | 34862 ft | 419 kts | 163° |
| 2026-04-24 21:19 | 50.08661 | 57.58765 | 34861 ft | 419 kts | 163° |
| 2026-04-24 21:19 | 50.03393 | 57.62615 | 34859 ft | 418 kts | 163° |
| 2026-04-24 21:20 | 49.95485 | 57.68378 | 34859 ft | 418 kts | 163° |
| 2026-04-24 21:21 | 49.90219 | 57.72199 | 34859 ft | 418 kts | 163° |
| 2026-04-24 21:21 | 49.84949 | 57.76008 | 34859 ft | 418 kts | 163° |
| 2026-04-24 21:22 | 49.79676 | 57.79816 | 34859 ft | 418 kts | 163° |
| 2026-04-24 21:22 | 49.74407 | 57.83614 | 34859 ft | 418 kts | 163° |
| 2026-04-24 21:23 | 49.69366 | 57.88318 | 34859 ft | 432 kts | 150° |
| 2026-04-24 21:23 | 49.64628 | 57.94071 | 34860 ft | 433 kts | 150° |
| 2026-04-24 21:24 | 49.59917 | 57.99782 | 34861 ft | 433 kts | 151° |
| 2026-04-24 21:24 | 49.55162 | 58.05492 | 34861 ft | 433 kts | 151° |
| 2026-04-24 21:25 | 49.50399 | 58.11186 | 34860 ft | 434 kts | 151° |
| 2026-04-24 21:25 | 49.45631 | 58.16886 | 34861 ft | 434 kts | 151° |
| 2026-04-24 21:26 | 49.40861 | 58.22577 | 34860 ft | 434 kts | 150° |
| 2026-04-24 21:26 | 49.36085 | 58.28266 | 34861 ft | 434 kts | 151° |
| 2026-04-24 21:27 | 49.31302 | 58.33937 | 34859 ft | 435 kts | 151° |
| 2026-04-24 21:27 | 49.26515 | 58.39604 | 34860 ft | 435 kts | 151° |
| 2026-04-24 21:28 | 49.21724 | 58.45272 | 34861 ft | 435 kts | 151° |
| 2026-04-24 21:28 | 49.16931 | 58.50930 | 34859 ft | 435 kts | 151° |
| 2026-04-24 21:29 | 49.12132 | 58.56570 | 34858 ft | 436 kts | 151° |
| 2026-04-24 21:29 | 49.07323 | 58.62206 | 34858 ft | 436 kts | 151° |
| 2026-04-24 21:30 | 49.02545 | 58.67803 | 34859 ft | 436 kts | 151° |
| 2026-04-24 21:30 | 48.97727 | 58.73413 | 34859 ft | 436 kts | 151° |
| 2026-04-24 21:31 | 48.92904 | 58.79018 | 34857 ft | 436 kts | 151° |
| 2026-04-24 21:31 | 48.88080 | 58.84625 | 34856 ft | 436 kts | 151° |
| 2026-04-24 21:32 | 48.83256 | 58.90212 | 34856 ft | 436 kts | 151° |
| 2026-04-24 21:32 | 48.78420 | 58.95791 | 34855 ft | 437 kts | 151° |
| 2026-04-24 21:33 | 48.73574 | 59.01370 | 34855 ft | 437 kts | 151° |
| 2026-04-24 21:33 | 48.68728 | 59.06950 | 34856 ft | 438 kts | 151° |
| 2026-04-24 21:34 | 48.63873 | 59.12510 | 34856 ft | 438 kts | 151° |
| 2026-04-24 21:34 | 48.59008 | 59.18072 | 34858 ft | 438 kts | 151° |
| 2026-04-24 21:35 | 48.54130 | 59.23632 | 34859 ft | 439 kts | 151° |
| 2026-04-24 21:35 | 48.49248 | 59.29169 | 34859 ft | 439 kts | 151° |
| 2026-04-24 21:36 | 48.44402 | 59.34674 | 34860 ft | 440 kts | 151° |
| 2026-04-24 21:36 | 48.39518 | 59.40210 | 34860 ft | 439 kts | 151° |
| 2026-04-24 21:37 | 48.34626 | 59.45726 | 34858 ft | 440 kts | 151° |
| 2026-04-24 21:37 | 48.29725 | 59.51257 | 34859 ft | 440 kts | 151° |
| 2026-04-24 21:38 | 48.24813 | 59.56779 | 34860 ft | 441 kts | 151° |
| 2026-04-24 21:38 | 48.19891 | 59.62292 | 34862 ft | 441 kts | 151° |
| 2026-04-24 21:39 | 48.14966 | 59.67790 | 34859 ft | 441 kts | 151° |
| 2026-04-24 21:39 | 48.10039 | 59.73290 | 34854 ft | 442 kts | 151° |
| 2026-04-24 21:40 | 48.05142 | 59.78748 | 34852 ft | 442 kts | 151° |
| 2026-04-24 21:40 | 48.00205 | 59.84225 | 34853 ft | 442 kts | 151° |
| 2026-04-24 21:41 | 47.95264 | 59.89685 | 34853 ft | 442 kts | 151° |
| 2026-04-24 21:41 | 47.90321 | 59.95144 | 34852 ft | 442 kts | 151° |
| 2026-04-24 21:42 | 47.85374 | 60.00594 | 34853 ft | 442 kts | 151° |
| 2026-04-24 21:42 | 47.80423 | 60.06027 | 34854 ft | 442 kts | 151° |
| 2026-04-24 21:43 | 47.75473 | 60.11453 | 34854 ft | 442 kts | 151° |
| 2026-04-24 21:43 | 47.70528 | 60.16882 | 34852 ft | 442 kts | 151° |
| 2026-04-24 21:44 | 47.65567 | 60.22299 | 34851 ft | 442 kts | 151° |
| 2026-04-24 21:44 | 47.60637 | 60.27671 | 34850 ft | 442 kts | 151° |
| 2026-04-24 21:45 | 47.55671 | 60.33067 | 34852 ft | 443 kts | 151° |
| 2026-04-24 21:45 | 47.50701 | 60.38458 | 34861 ft | 443 kts | 151° |
| 2026-04-24 21:46 | 47.45719 | 60.43840 | 34868 ft | 444 kts | 151° |
| 2026-04-24 21:46 | 47.40726 | 60.49217 | 34870 ft | 444 kts | 151° |
| 2026-04-24 21:47 | 47.35728 | 60.54586 | 34873 ft | 444 kts | 151° |
| 2026-04-24 21:47 | 47.30727 | 60.59953 | 34878 ft | 445 kts | 151° |
| 2026-04-24 21:48 | 47.25720 | 60.65322 | 34875 ft | 445 kts | 151° |
| 2026-04-24 21:48 | 47.20701 | 60.70678 | 34876 ft | 446 kts | 151° |
| 2026-04-24 21:49 | 47.15681 | 60.76032 | 34877 ft | 446 kts | 151° |
| 2026-04-24 21:49 | 47.10652 | 60.81376 | 34877 ft | 446 kts | 151° |
| 2026-04-24 21:50 | 47.05644 | 60.86684 | 34878 ft | 447 kts | 151° |
| 2026-04-24 21:50 | 47.00596 | 60.92022 | 34882 ft | 447 kts | 151° |
| 2026-04-24 21:51 | 46.95535 | 60.97363 | 34882 ft | 448 kts | 151° |
| 2026-04-24 21:51 | 46.90479 | 61.02693 | 34884 ft | 448 kts | 151° |
| 2026-04-24 21:52 | 46.85411 | 61.08024 | 34885 ft | 449 kts | 151° |
| 2026-04-24 21:52 | 46.80338 | 61.13348 | 34886 ft | 449 kts | 151° |
| 2026-04-24 21:53 | 46.75283 | 61.18632 | 34887 ft | 450 kts | 151° |
| 2026-04-24 21:53 | 46.70160 | 61.23969 | 34893 ft | 450 kts | 151° |
| 2026-04-24 21:54 | 46.65098 | 61.29233 | 34896 ft | 450 kts | 151° |
| 2026-04-24 21:54 | 46.59994 | 61.34528 | 34898 ft | 450 kts | 151° |
| 2026-04-24 21:55 | 46.54891 | 61.39813 | 34898 ft | 451 kts | 151° |
| 2026-04-24 21:55 | 46.49775 | 61.45104 | 34899 ft | 451 kts | 151° |
| 2026-04-24 21:56 | 46.44650 | 61.50379 | 34900 ft | 452 kts | 151° |
| 2026-04-24 21:56 | 46.39523 | 61.55650 | 34901 ft | 452 kts | 151° |
| 2026-04-24 21:57 | 46.34392 | 61.60923 | 34906 ft | 452 kts | 151° |
| 2026-04-24 21:57 | 46.29258 | 61.66179 | 34910 ft | 453 kts | 151° |
| 2026-04-24 21:58 | 46.24110 | 61.71432 | 34910 ft | 453 kts | 151° |
| 2026-04-24 21:58 | 46.18963 | 61.76674 | 34908 ft | 452 kts | 151° |
| 2026-04-24 21:59 | 46.13816 | 61.81889 | 34907 ft | 453 kts | 151° |
| 2026-04-24 21:59 | 46.08689 | 61.87068 | 34906 ft | 453 kts | 151° |
| 2026-04-24 22:00 | 46.03532 | 61.92263 | 34905 ft | 452 kts | 151° |
| 2026-04-24 22:00 | 45.98378 | 61.97458 | 34908 ft | 453 kts | 151° |
| 2026-04-24 22:01 | 45.93216 | 62.02642 | 34913 ft | 453 kts | 151° |
| 2026-04-24 22:01 | 45.88051 | 62.07813 | 34916 ft | 453 kts | 151° |
| 2026-04-24 22:02 | 45.82839 | 62.12848 | 34915 ft | 448 kts | 157° |
| 2026-04-24 22:02 | 45.77251 | 62.16650 | 34916 ft | 444 kts | 161° |
| 2026-04-24 22:03 | 45.72549 | 62.19754 | 34917 ft | 444 kts | 161° |
| 2026-04-24 22:03 | 45.66966 | 62.23428 | 34915 ft | 445 kts | 161° |
| 2026-04-24 22:04 | 45.61345 | 62.27135 | 34914 ft | 445 kts | 161° |
| 2026-04-24 22:04 | 45.55717 | 62.30829 | 34917 ft | 445 kts | 161° |
| 2026-04-24 22:05 | 45.50091 | 62.34514 | 34918 ft | 445 kts | 161° |
| 2026-04-24 22:05 | 45.44457 | 62.38197 | 34919 ft | 445 kts | 161° |
| 2026-04-24 22:06 | 45.38820 | 62.41881 | 34916 ft | 446 kts | 161° |
| 2026-04-24 22:06 | 45.33179 | 62.45552 | 34915 ft | 446 kts | 161° |
| 2026-04-24 22:07 | 45.27531 | 62.49221 | 34916 ft | 447 kts | 161° |
| 2026-04-24 22:07 | 45.21878 | 62.52887 | 34918 ft | 447 kts | 161° |
| 2026-04-24 22:08 | 45.16215 | 62.56548 | 34920 ft | 448 kts | 161° |
| 2026-04-24 22:08 | 45.10545 | 62.60200 | 34920 ft | 448 kts | 161° |
| 2026-04-24 22:09 | 45.04861 | 62.63856 | 34921 ft | 448 kts | 161° |
| 2026-04-24 22:09 | 44.99183 | 62.67513 | 34925 ft | 448 kts | 160° |
| 2026-04-24 22:10 | 44.93537 | 62.71138 | 34927 ft | 449 kts | 161° |
| 2026-04-24 22:10 | 44.87845 | 62.74772 | 34933 ft | 449 kts | 160° |
| 2026-04-24 22:11 | 44.82147 | 62.78404 | 34944 ft | 449 kts | 161° |
| 2026-04-24 22:11 | 44.76450 | 62.82032 | 34943 ft | 450 kts | 160° |
| 2026-04-24 22:12 | 44.70754 | 62.85663 | 34945 ft | 449 kts | 160° |
| 2026-04-24 22:12 | 44.65053 | 62.89290 | 34947 ft | 450 kts | 160° |
| 2026-04-24 22:13 | 44.59347 | 62.92894 | 34951 ft | 450 kts | 160° |
| 2026-04-24 22:13 | 44.53638 | 62.96500 | 34951 ft | 450 kts | 160° |
| 2026-04-24 22:14 | 44.47928 | 63.00093 | 34950 ft | 450 kts | 160° |
| 2026-04-24 22:14 | 44.42219 | 63.03678 | 34950 ft | 450 kts | 160° |
| 2026-04-24 22:15 | 44.36508 | 63.07251 | 34949 ft | 450 kts | 160° |
| 2026-04-24 22:15 | 44.30839 | 63.10803 | 34952 ft | 450 kts | 160° |
| 2026-04-24 22:16 | 44.25126 | 63.14370 | 34948 ft | 450 kts | 160° |
| 2026-04-24 22:16 | 44.19406 | 63.17929 | 34949 ft | 450 kts | 160° |
| 2026-04-24 22:17 | 44.13674 | 63.21503 | 34950 ft | 450 kts | 160° |
| 2026-04-24 22:17 | 44.07943 | 63.25060 | 34951 ft | 451 kts | 160° |
| 2026-04-24 22:18 | 44.02218 | 63.28609 | 34953 ft | 451 kts | 160° |
| 2026-04-24 22:18 | 43.96487 | 63.32155 | 34952 ft | 450 kts | 160° |
| 2026-04-24 22:19 | 43.90761 | 63.35681 | 34953 ft | 450 kts | 160° |
| 2026-04-24 22:19 | 43.85032 | 63.39195 | 34958 ft | 450 kts | 160° |
| 2026-04-24 22:20 | 43.79304 | 63.42706 | 34959 ft | 450 kts | 160° |
| 2026-04-24 22:20 | 43.73575 | 63.46208 | 34961 ft | 450 kts | 160° |
| 2026-04-24 22:21 | 43.67847 | 63.49709 | 34961 ft | 450 kts | 160° |
| 2026-04-24 22:21 | 43.62151 | 63.53178 | 34960 ft | 450 kts | 160° |
| 2026-04-24 22:22 | 43.56419 | 63.56661 | 34961 ft | 450 kts | 160° |
| 2026-04-24 22:22 | 43.50689 | 63.60137 | 34962 ft | 450 kts | 160° |
| 2026-04-24 22:23 | 43.44957 | 63.63612 | 34960 ft | 450 kts | 160° |
| 2026-04-24 22:23 | 43.39226 | 63.67070 | 34959 ft | 450 kts | 160° |
| 2026-04-24 22:24 | 43.33497 | 63.70525 | 34958 ft | 450 kts | 160° |
| 2026-04-24 22:24 | 43.27760 | 63.73972 | 34959 ft | 450 kts | 160° |
| 2026-04-24 22:25 | 43.22023 | 63.77414 | 34961 ft | 449 kts | 160° |
| 2026-04-24 22:25 | 43.16291 | 63.80844 | 34961 ft | 449 kts | 161° |
| 2026-04-24 22:26 | 43.10604 | 63.84243 | 34961 ft | 449 kts | 160° |
| 2026-04-24 22:26 | 43.04883 | 63.87656 | 34961 ft | 449 kts | 160° |
| 2026-04-24 22:27 | 42.99156 | 63.91065 | 34962 ft | 449 kts | 161° |
| 2026-04-24 22:27 | 42.93431 | 63.94468 | 34961 ft | 448 kts | 160° |
| 2026-04-24 22:28 | 42.87708 | 63.97869 | 34963 ft | 448 kts | 160° |
| 2026-04-24 22:28 | 42.81992 | 64.01234 | 34961 ft | 447 kts | 161° |
| 2026-04-24 22:29 | 42.73412 | 64.06288 | 34963 ft | 447 kts | 161° |
| 2026-04-24 22:29 | 42.67738 | 64.09627 | 34960 ft | 447 kts | 161° |
| 2026-04-24 22:30 | 42.62025 | 64.12987 | 34966 ft | 447 kts | 161° |
| 2026-04-24 22:30 | 42.56605 | 64.17192 | 34972 ft | 453 kts | 148° |
| 2026-04-24 22:31 | 42.51523 | 64.22268 | 34969 ft | 453 kts | 148° |
| 2026-04-24 22:31 | 42.46428 | 64.27312 | 34964 ft | 453 kts | 148° |
| 2026-04-24 22:32 | 42.41332 | 64.32344 | 34963 ft | 453 kts | 148° |
| 2026-04-24 22:32 | 42.36236 | 64.37366 | 34968 ft | 453 kts | 148° |
| 2026-04-24 22:33 | 42.31138 | 64.42377 | 34969 ft | 453 kts | 148° |
| 2026-04-24 22:33 | 42.26075 | 64.47346 | 34967 ft | 453 kts | 148° |
| 2026-04-24 22:34 | 42.20974 | 64.52354 | 34967 ft | 453 kts | 148° |
| 2026-04-24 22:34 | 42.15870 | 64.57351 | 34972 ft | 453 kts | 148° |
| 2026-04-24 22:35 | 42.10773 | 64.62333 | 34974 ft | 453 kts | 148° |
| 2026-04-24 22:35 | 42.05674 | 64.67296 | 34972 ft | 452 kts | 148° |
| 2026-04-24 22:36 | 42.00573 | 64.72255 | 34971 ft | 452 kts | 148° |
| 2026-04-24 22:36 | 41.95463 | 64.77218 | 34969 ft | 453 kts | 148° |
| 2026-04-24 22:37 | 41.90353 | 64.82171 | 34964 ft | 453 kts | 148° |
| 2026-04-24 22:37 | 41.85228 | 64.87117 | 34963 ft | 454 kts | 148° |
| 2026-04-24 22:38 | 41.80089 | 64.92062 | 34965 ft | 455 kts | 148° |
| 2026-04-24 22:38 | 41.74955 | 64.97000 | 34967 ft | 455 kts | 148° |
| 2026-04-24 22:39 | 41.69814 | 65.01947 | 34969 ft | 455 kts | 148° |
| 2026-04-24 22:39 | 41.64671 | 65.06894 | 34972 ft | 456 kts | 148° |
| 2026-04-24 22:40 | 41.59554 | 65.11800 | 34971 ft | 456 kts | 148° |
| 2026-04-24 22:40 | 41.54389 | 65.16719 | 34972 ft | 456 kts | 149° |
| 2026-04-24 22:41 | 41.49221 | 65.21640 | 34973 ft | 456 kts | 149° |
| 2026-04-24 22:41 | 41.44915 | 65.25732 | 34979 ft | 457 kts | 149° |
| 2026-04-24 22:42 | 41.38860 | 65.31492 | 34987 ft | 458 kts | 149° |
| 2026-04-24 22:42 | 41.33677 | 65.36411 | 34997 ft | 457 kts | 149° |
| 2026-04-24 22:43 | 41.28497 | 65.41316 | 35003 ft | 457 kts | 149° |
| 2026-04-24 22:43 | 41.23305 | 65.46210 | 35002 ft | 458 kts | 149° |
| 2026-04-24 22:44 | 41.18112 | 65.51094 | 35001 ft | 457 kts | 149° |
| 2026-04-24 22:44 | 41.12916 | 65.55971 | 35008 ft | 457 kts | 149° |
| 2026-04-24 22:45 | 41.07743 | 65.60815 | 35005 ft | 458 kts | 149° |
| 2026-04-24 22:45 | 41.02522 | 65.65686 | 35012 ft | 459 kts | 149° |
| 2026-04-24 22:46 | 40.97294 | 65.70529 | 35008 ft | 459 kts | 149° |
| 2026-04-24 22:46 | 40.92054 | 65.75369 | 35010 ft | 459 kts | 149° |
| 2026-04-24 22:47 | 40.86810 | 65.80201 | 35013 ft | 459 kts | 149° |
| 2026-04-24 22:47 | 40.81557 | 65.85034 | 35016 ft | 459 kts | 150° |
| 2026-04-24 22:48 | 40.76317 | 65.89852 | 35018 ft | 459 kts | 150° |
| 2026-04-24 22:48 | 40.71070 | 65.94670 | 35014 ft | 460 kts | 150° |
| 2026-04-24 22:49 | 40.65813 | 65.99473 | 35020 ft | 460 kts | 150° |
| 2026-04-24 22:49 | 40.61442 | 66.03465 | 35023 ft | 460 kts | 150° |
| 2026-04-24 22:50 | 40.55329 | 66.09054 | 35017 ft | 460 kts | 150° |
| 2026-04-24 22:50 | 40.50066 | 66.13846 | 35023 ft | 460 kts | 150° |
| 2026-04-24 22:51 | 40.45691 | 66.17817 | 35017 ft | 460 kts | 150° |
| 2026-04-24 22:51 | 40.40415 | 66.22582 | 35021 ft | 460 kts | 150° |
| 2026-04-24 22:52 | 40.35124 | 66.27306 | 35026 ft | 460 kts | 151° |
| 2026-04-24 22:52 | 40.29828 | 66.32013 | 35028 ft | 460 kts | 151° |
| 2026-04-24 22:53 | 40.24628 | 66.36932 | 35029 ft | 464 kts | 144° |
| 2026-04-24 22:53 | 40.19731 | 66.42463 | 35030 ft | 465 kts | 144° |
| 2026-04-24 22:54 | 40.14826 | 66.47967 | 35032 ft | 465 kts | 144° |
| 2026-04-24 22:54 | 40.09909 | 66.53465 | 35036 ft | 465 kts | 144° |
| 2026-04-24 22:55 | 40.04991 | 66.58948 | 35036 ft | 465 kts | 144° |
| 2026-04-24 22:55 | 40.00073 | 66.64423 | 35036 ft | 465 kts | 144° |
| 2026-04-24 22:56 | 39.95153 | 66.69894 | 35036 ft | 465 kts | 144° |
| 2026-04-24 22:56 | 39.90229 | 66.75362 | 35038 ft | 465 kts | 144° |
| 2026-04-24 22:57 | 39.85292 | 66.80817 | 35039 ft | 465 kts | 144° |
| 2026-04-24 22:57 | 39.80354 | 66.86257 | 35041 ft | 465 kts | 144° |
| 2026-04-24 22:58 | 39.75416 | 66.91714 | 35041 ft | 466 kts | 144° |
| 2026-04-24 22:58 | 39.70471 | 66.97169 | 35039 ft | 466 kts | 145° |
| 2026-04-24 22:59 | 39.65411 | 67.02388 | 35041 ft | 464 kts | 148° |
| 2026-04-24 23:00 | 39.57660 | 67.09816 | 35041 ft | 464 kts | 148° |
| 2026-04-24 23:00 | 39.52495 | 67.14833 | 35041 ft | 464 kts | 148° |
| 2026-04-24 23:01 | 39.47349 | 67.19902 | 35045 ft | 465 kts | 148° |
| 2026-04-24 23:01 | 39.42095 | 67.24693 | 35041 ft | 458 kts | 157° |
| 2026-04-24 23:02 | 39.36348 | 67.28095 | 35041 ft | 453 kts | 161° |
| 2026-04-24 23:02 | 39.30585 | 67.31416 | 35039 ft | 454 kts | 161° |
| 2026-04-24 23:03 | 39.24823 | 67.34752 | 35040 ft | 454 kts | 161° |
| 2026-04-24 23:03 | 39.19053 | 67.38081 | 35042 ft | 454 kts | 161° |
| 2026-04-24 23:04 | 39.13279 | 67.41407 | 35046 ft | 454 kts | 161° |
| 2026-04-24 23:04 | 39.07504 | 67.44734 | 35051 ft | 455 kts | 161° |
| 2026-04-24 23:05 | 39.01740 | 67.48094 | 34937 ft | 457 kts | 158° |
| 2026-04-24 23:05 | 38.99030 | 67.50261 | 34575 ft | 462 kts | 148° |
| 2026-04-24 23:05 | 38.96599 | 67.53039 | 33663 ft | 474 kts | 136° |
| 2026-04-24 23:05 | 38.94584 | 67.56432 | 32787 ft | 482 kts | 125° |
| 2026-04-24 23:06 | 38.93045 | 67.60233 | 31857 ft | 489 kts | 118° |
| 2026-04-24 23:06 | 38.91594 | 67.64199 | 30860 ft | 492 kts | 118° |
| 2026-04-24 23:06 | 38.90120 | 67.68179 | 29835 ft | 495 kts | 119° |
| 2026-04-24 23:06 | 38.88640 | 67.72148 | 29262 ft | 488 kts | 119° |
| 2026-04-24 23:07 | 38.87178 | 67.76054 | 28610 ft | 483 kts | 119° |
| 2026-04-24 23:07 | 38.85724 | 67.79923 | 27967 ft | 479 kts | 119° |
| 2026-04-24 23:07 | 38.84287 | 67.83753 | 27319 ft | 475 kts | 119° |
| 2026-04-24 23:07 | 38.82859 | 67.87554 | 26676 ft | 471 kts | 119° |
| 2026-04-24 23:08 | 38.81443 | 67.91316 | 26040 ft | 466 kts | 119° |
| 2026-04-24 23:08 | 38.80042 | 67.95039 | 25416 ft | 462 kts | 119° |
| 2026-04-24 23:08 | 38.78661 | 67.98714 | 24803 ft | 457 kts | 119° |
| 2026-04-24 23:08 | 38.77292 | 68.02362 | 24197 ft | 450 kts | 118° |
| 2026-04-24 23:09 | 38.75939 | 68.05961 | 23601 ft | 445 kts | 119° |
| 2026-04-24 23:09 | 38.74599 | 68.09509 | 23036 ft | 439 kts | 119° |
| 2026-04-24 23:09 | 38.73080 | 68.12843 | 22467 ft | 429 kts | 129° |
| 2026-04-24 23:09 | 38.71207 | 68.15745 | 21976 ft | 417 kts | 137° |
| 2026-04-24 23:10 | 38.69232 | 68.18427 | 21481 ft | 411 kts | 137° |
| 2026-04-24 23:10 | 38.67366 | 68.21122 | 20740 ft | 413 kts | 128° |
| 2026-04-24 23:10 | 38.65878 | 68.24225 | 20244 ft | 395 kts | 123° |
| 2026-04-24 23:10 | 38.64523 | 68.27161 | 19627 ft | 375 kts | 124° |
| 2026-04-24 23:11 | 38.63207 | 68.29991 | 18754 ft | 365 kts | 124° |
| 2026-04-24 23:11 | 38.61919 | 68.32747 | 17876 ft | 357 kts | 124° |
| 2026-04-24 23:11 | 38.60656 | 68.35436 | 16995 ft | 348 kts | 124° |
| 2026-04-24 23:11 | 38.59421 | 68.38066 | 16054 ft | 343 kts | 123° |
| 2026-04-24 23:12 | 38.58204 | 68.40665 | 15049 ft | 339 kts | 123° |
| 2026-04-24 23:12 | 38.57001 | 68.43239 | 14037 ft | 335 kts | 123° |
| 2026-04-24 23:12 | 38.55814 | 68.45777 | 13005 ft | 331 kts | 123° |
| 2026-04-24 23:12 | 38.54716 | 68.48350 | 11919 ft | 328 kts | 115° |
| 2026-04-24 23:13 | 38.53664 | 68.50897 | 10878 ft | 321 kts | 131° |
| 2026-04-24 23:13 | 38.52006 | 68.52657 | 10196 ft | 304 kts | 155° |
| 2026-04-24 23:13 | 38.50029 | 68.53291 | 9716 ft | 284 kts | 182° |
| 2026-04-24 23:13 | 38.48215 | 68.52736 | 9489 ft | 261 kts | 209° |
| 2026-04-24 23:14 | 38.46914 | 68.51239 | 9240 ft | 249 kts | 237° |
| 2026-04-24 23:14 | 38.46204 | 68.49261 | 8966 ft | 246 kts | 251° |
| 2026-04-24 23:14 | 38.45666 | 68.47191 | 8626 ft | 245 kts | 252° |
| 2026-04-24 23:14 | 38.45152 | 68.45121 | 8292 ft | 244 kts | 253° |
| 2026-04-24 23:15 | 38.44644 | 68.43061 | 7966 ft | 243 kts | 253° |
| 2026-04-24 23:15 | 38.44137 | 68.41007 | 7625 ft | 242 kts | 253° |
| 2026-04-24 23:15 | 38.43684 | 68.38952 | 7292 ft | 241 kts | 260° |
| 2026-04-24 23:15 | 38.43668 | 68.36845 | 6955 ft | 238 kts | 286° |
| 2026-04-24 23:16 | 38.44500 | 68.35082 | 6781 ft | 235 kts | 320° |
| 2026-04-24 23:16 | 38.45940 | 68.34186 | 6790 ft | 237 kts | 352° |
| 2026-04-24 23:16 | 38.47585 | 68.34273 | 6791 ft | 239 kts | 10° |
| 2026-04-24 23:16 | 38.49219 | 68.34689 | 6785 ft | 240 kts | 12° |
| 2026-04-24 23:17 | 38.50787 | 68.35390 | 6783 ft | 239 kts | 28° |
| 2026-04-24 23:17 | 38.52128 | 68.36640 | 6788 ft | 240 kts | 43° |
| 2026-04-24 23:17 | 38.53218 | 68.38239 | 6787 ft | 240 kts | 56° |
| 2026-04-24 23:17 | 38.53966 | 68.40131 | 6802 ft | 239 kts | 71° |
| 2026-04-24 23:18 | 38.54416 | 68.42177 | 6805 ft | 239 kts | 82° |
| 2026-04-24 23:18 | 38.54533 | 68.44299 | 6805 ft | 239 kts | 93° |
| 2026-04-24 23:18 | 38.54434 | 68.46405 | 6821 ft | 231 kts | 93° |
| 2026-04-24 23:18 | 38.54393 | 68.48418 | 6808 ft | 224 kts | 90° |
| 2026-04-24 23:19 | 38.54390 | 68.50399 | 6807 ft | 222 kts | 90° |
| 2026-04-24 23:19 | 38.54392 | 68.52372 | 6770 ft | 222 kts | 90° |
| 2026-04-24 23:19 | 38.54394 | 68.54297 | 6569 ft | 211 kts | 90° |
| 2026-04-24 23:19 | 38.54394 | 68.56128 | 6299 ft | 202 kts | 90° |
| 2026-04-24 23:20 | 38.54396 | 68.57891 | 6039 ft | 195 kts | 90° |
| 2026-04-24 23:20 | 38.54395 | 68.59583 | 5785 ft | 185 kts | 90° |
| 2026-04-24 23:20 | 38.54395 | 68.61180 | 5548 ft | 175 kts | 90° |
| 2026-04-24 23:20 | 38.54394 | 68.62674 | 5319 ft | 167 kts | 90° |
| 2026-04-24 23:21 | 38.54393 | 68.64154 | 5102 ft | 163 kts | 90° |
| 2026-04-24 23:21 | 38.54393 | 68.65574 | 4890 ft | 161 kts | 90° |
| 2026-04-24 23:21 | 38.54392 | 68.67000 | 4676 ft | 160 kts | 90° |
| 2026-04-24 23:21 | 38.54390 | 68.68420 | 4467 ft | 160 kts | 90° |
| 2026-04-24 23:22 | 38.54389 | 68.69833 | 4266 ft | 158 kts | 90° |
| 2026-04-24 23:22 | 38.54388 | 68.71239 | 4053 ft | 158 kts | 90° |
| 2026-04-24 23:22 | 38.54385 | 68.72641 | 3837 ft | 158 kts | 90° |
| 2026-04-24 23:22 | 38.54383 | 68.74040 | 3624 ft | 157 kts | 90° |
| 2026-04-24 23:23 | 38.54382 | 68.75414 | 3419 ft | 151 kts | 90° |
| 2026-04-24 23:23 | 38.54381 | 68.76740 | 3222 ft | 148 kts | 90° |
| 2026-04-24 23:23 | 38.54379 | 68.78049 | 3026 ft | 147 kts | 90° |
| 2026-04-24 23:23 | 38.54377 | 68.79346 | 2835 ft | 146 kts | 90° |
| 2026-04-24 23:24 | 38.54375 | 68.80635 | 2642 ft | 145 kts | 90° |
| 2026-04-24 23:24 | 38.54372 | 68.81875 | 2577 ft | 128 kts | 90° |
| 2026-04-24 23:24 | 38.54369 | 68.82788 | 2577 ft | 79 kts | 90° |
| 2026-04-24 23:24 | 38.54367 | 68.83132 | 2582 ft | 17 kts | 90° |
| 2026-04-24 23:25 | 38.54383 | 68.83251 | 2576 ft | 13 kts | 49° |
| 2026-04-24 23:25 | 38.54475 | 68.83287 | 2577 ft | 14 kts | 2° |
| 2026-04-24 23:25 | 38.54488 | 68.83288 | 2582 ft | 3 kts | 2° |
| 2026-04-24 23:25 | 38.54492 | 68.83288 | 2582 ft | 0 kts | 2° |
| 2026-04-24 23:26 | 38.54517 | 68.83289 | 2582 ft | 7 kts | 2° |
| 2026-04-24 23:26 | 38.54590 | 68.83290 | 2582 ft | 13 kts | 359° |
| 2026-04-24 23:26 | 38.54679 | 68.83251 | 2582 ft | 14 kts | 298° |
| 2026-04-24 23:27 | 38.54687 | 68.83096 | 2577 ft | 21 kts | 271° |
| 2026-04-24 23:27 | 38.54688 | 68.82943 | 2582 ft | 15 kts | 268° |
| 2026-04-24 23:27 | 38.54687 | 68.82810 | 2582 ft | 13 kts | 270° |
| 2026-04-24 23:27 | 38.54688 | 68.82683 | 2582 ft | 15 kts | 271° |
| 2026-04-24 23:28 | 38.54689 | 68.82538 | 2582 ft | 17 kts | 272° |
| 2026-04-24 23:28 | 38.54698 | 68.82386 | 2582 ft | 17 kts | 271° |
| 2026-04-24 23:28 | 38.54700 | 68.82224 | 2582 ft | 18 kts | 270° |
| 2026-04-24 23:28 | 38.54699 | 68.82063 | 2582 ft | 19 kts | 270° |
| 2026-04-24 23:29 | 38.54700 | 68.81894 | 2582 ft | 17 kts | 270° |
| 2026-04-24 23:29 | 38.54701 | 68.81752 | 2580 ft | 15 kts | 270° |
| 2026-04-24 23:29 | 38.54701 | 68.81618 | 2582 ft | 12 kts | 270° |
| 2026-04-24 23:29 | 38.54695 | 68.81517 | 2582 ft | 11 kts | 275° |
| 2026-04-24 23:30 | 38.54738 | 68.81470 | 2578 ft | 7 kts | 354° |
| 2026-04-24 23:30 | 38.54757 | 68.81475 | 2578 ft | 2 kts | 12° |
| 2026-04-24 23:30 | 38.54778 | 68.81482 | 2579 ft | 3 kts | 18° |
| 2026-04-24 23:30 | 38.54782 | 68.81484 | 2582 ft | 0 kts | 18° |